메인 페이지
METAR-TAF:

METAR-TAF

공항 :

Iquique, 칠레

위도: 20-32S, 경도: 070-11W, 고도: 52m

현재 날씨관측

예보는 51분 전, 03:00시(UTC)에 발표되었습니다.
동북동6kt
온도 21°C
습도 69%
기압 1016 hPa
시정 10km 이상
1500m 미만 상공 구름 및 적란운 없음

METAR: SCDA 030300Z 06006KT CAVOK 21/15 Q1016

시각: 00:51 (03:51 UTC)

예보

예보는 5 시간 9분 전, 22:42시(UTC)에 발표되었습니다.
예보 대상 시간: 03일 00시부터 03일 24시까지 (UTC)
남남서14kt
시정 10km 이상
1500m 미만 상공 구름 및 적란운 없음
전환 중
03일 02시부터 03일 04시까지 (UTC)
남남서4kt
전환 중
03일 14시부터 03일 16시까지 (UTC)
남남서14kt

TAF: SCDA 022242Z 0300/0324 21014KT CAVOK TN21/0310Z TX26/0318Z BECMG 0302/0304 21004KT BECMG 0314/0316 21014KT

4,000개 이상의 공항 관측 자료 및 예보 (METAR 및 TAF 보고).

지도상에서 검색 가능한 기상관측소가 노란 점과 빨간 점으로 표시되어 있습니다.

기상관측소 명을 보려면 표시 위로 마우스를 이동하세요.

날씨 관측과 예보를 보려면 클릭하세요.

지도 변경 : 확대하려면 엑스 표시가 있는 녹색 버튼, 축소하려면 빼기 표시가 있는 녹색 버튼, 다음 페이지의 지도를 보려면 녹색 화살표를 클릭하세요.


METAR-TAF: